Time;durP1;ratioP1;P1;durP2;ratioP2;P2;SDS_P1;SDS_P2;PMS_P1;PMS_P2;Temp;Humidity;BMP_temperature;BMP_pressure;BME280_temperature;BME280_humidity;BME280_pressure;Samples;Min_cycle;Max_cycle;Signal;HPM_P1;HPM_P2
2021/05/23 00:02:18;;;;;;;;;;;10.50;76.50;;;;;;5031495;28;20278;-65
2021/05/23 00:04:44;;;;;;;;;;;10.50;76.40;;;;;;5031291;28;19917;-65
2021/05/23 00:07:10;;;;;;;;;;;10.50;76.40;;;;;;5031455;28;19918;-65
2021/05/23 00:09:36;;;;;;;;;;;10.50;76.40;;;;;;5031434;28;19931;-65
2021/05/23 00:12:03;;;;;;;;;;;10.40;76.50;;;;;;5031779;28;20373;-65
2021/05/23 00:14:28;;;;;;;;;;;10.40;76.50;;;;;;5030778;28;19933;-65
2021/05/23 00:16:54;;;;;;;;;;;10.40;76.50;;;;;;5031543;28;19921;-65
2021/05/23 00:19:19;;;;;;;;;;;10.40;76.50;;;;;;5031023;28;19925;-66
2021/05/23 00:21:45;;;;;;;;;;;10.40;76.50;;;;;;5031360;28;19933;-65
2021/05/23 00:24:11;;;;;;;;;;;10.40;76.60;;;;;;5031190;28;19954;-65
2021/05/23 00:26:37;;;;;;;;;;;10.40;76.60;;;;;;5031215;28;19957;-65
2021/05/23 00:29:03;;;;;;;;;;;10.40;76.60;;;;;;5030102;28;20381;-65
2021/05/23 00:31:29;;;;;;;;;;;10.30;76.60;;;;;;5031518;28;19917;-65
2021/05/23 00:33:54;;;;;;;;;;;10.30;76.60;;;;;;5030378;28;20015;-65
2021/05/23 00:36:20;;;;;;;;;;;10.30;76.60;;;;;;5031465;28;19921;-65
2021/05/23 00:38:46;;;;;;;;;;;10.30;76.80;;;;;;5031364;28;20392;-65
2021/05/23 00:41:12;;;;;;;;;;;10.30;76.60;;;;;;5029651;28;19953;-65
2021/05/23 00:43:37;;;;;;;;;;;10.30;76.70;;;;;;5030876;28;20018;-66
2021/05/23 00:46:03;;;;;;;;;;;10.30;76.70;;;;;;5030992;28;19921;-65
2021/05/23 00:48:28;;;;;;;;;;;10.30;76.70;;;;;;5031320;28;19959;-65
2021/05/23 00:50:54;;;;;;;;;;;10.30;76.70;;;;;;5031425;28;20355;-65
2021/05/23 00:53:19;;;;;;;;;;;10.30;76.80;;;;;;5029249;28;19940;-65
2021/05/23 00:55:45;;;;;;;;;;;10.30;76.70;;;;;;5031181;28;19989;-65
2021/05/23 00:58:11;;;;;;;;;;;10.30;76.60;;;;;;5031364;28;20369;-65
2021/05/23 01:00:40;;;;;;;;;;;10.30;76.60;;;;;;5030870;28;19952;-65
2021/05/23 01:03:24;;;;;;;;;;;10.30;76.60;;;;;;5030738;28;19917;-65
2021/05/23 01:05:50;;;;;;;;;;;10.30;76.60;;;;;;5031059;28;19921;-65
2021/05/23 01:08:15;;;;;;;;;;;10.30;76.60;;;;;;5031285;28;19936;-65
2021/05/23 01:10:50;;;;;;;;;;;10.30;76.60;;;;;;5030321;28;20261;-65
2021/05/23 01:13:34;;;;;;;;;;;10.30;76.50;;;;;;5030493;28;19917;-65
2021/05/23 01:16:01;;;;;;;;;;;10.30;76.60;;;;;;5030671;28;19918;-65
2021/05/23 01:18:34;;;;;;;;;;;10.30;76.60;;;;;;5029835;28;20320;-65
2021/05/23 01:21:00;;;;;;;;;;;10.30;76.50;;;;;;5030664;28;19917;-65
2021/05/23 01:23:30;;;;;;;;;;;10.30;76.50;;;;;;5030561;28;20007;-66
2021/05/23 01:26:02;;;;;;;;;;;10.30;76.60;;;;;;5029371;28;19917;-65
2021/05/23 01:28:28;;;;;;;;;;;10.20;76.40;;;;;;5031045;28;19977;-65
2021/05/23 01:30:53;;;;;;;;;;;10.30;76.50;;;;;;5030412;28;20381;-65
2021/05/23 01:33:20;;;;;;;;;;;10.30;76.50;;;;;;5031936;28;20365;-65
2021/05/23 01:35:47;;;;;;;;;;;10.30;76.30;;;;;;5034610;28;20000;-65
2021/05/23 01:38:14;;;;;;;;;;;10.30;76.40;;;;;;5032710;28;19936;-65
2021/05/23 01:40:40;;;;;;;;;;;10.30;76.30;;;;;;5034137;28;19921;-65
2021/05/23 01:43:07;;;;;;;;;;;10.30;76.30;;;;;;5033477;28;20184;-65
2021/05/23 01:45:33;;;;;;;;;;;10.20;76.20;;;;;;5034223;28;19917;-65
2021/05/23 01:47:59;;;;;;;;;;;10.20;76.20;;;;;;5034253;28;19959;-65
2021/05/23 01:50:25;;;;;;;;;;;10.20;76.30;;;;;;5032292;28;19983;-65
2021/05/23 01:52:52;;;;;;;;;;;10.20;76.20;;;;;;5033794;28;19950;-65
2021/05/23 01:55:18;;;;;;;;;;;10.20;76.20;;;;;;5033721;28;20285;-65
2021/05/23 01:57:44;;;;;;;;;;;10.30;76.20;;;;;;5032405;28;19921;-65
2021/05/23 02:00:10;;;;;;;;;;;10.20;76.20;;;;;;5034030;28;19924;-66
2021/05/23 02:02:37;;;;;;;;;;;10.30;76.10;;;;;;5033550;28;19917;-65
2021/05/23 02:05:04;;;;;;;;;;;10.30;76.20;;;;;;5033410;28;20007;-65
2021/05/23 02:07:29;;;;;;;;;;;10.20;76.10;;;;;;5032640;28;19923;-65
2021/05/23 02:09:55;;;;;;;;;;;10.30;76.10;;;;;;5015394;28;20007;-65
2021/05/23 02:12:21;;;;;;;;;;;10.20;76.00;;;;;;5033924;28;19923;-65
2021/05/23 02:14:47;;;;;;;;;;;10.20;76.00;;;;;;5033151;28;19913;-66
2021/05/23 02:17:13;;;;;;;;;;;10.20;76.00;;;;;;5033285;28;19929;-65
2021/05/23 02:19:38;;;;;;;;;;;10.10;76.00;;;;;;5033555;28;19917;-65
2021/05/23 02:22:04;;;;;;;;;;;10.10;76.00;;;;;;5033283;28;19924;-65
2021/05/23 02:24:29;;;;;;;;;;;10.10;75.90;;;;;;5031935;28;19917;-65
2021/05/23 02:26:55;;;;;;;;;;;10.10;76.00;;;;;;5033573;28;19956;-65
2021/05/23 02:29:20;;;;;;;;;;;10.10;75.90;;;;;;5031876;28;20324;-65
2021/05/23 02:31:46;;;;;;;;;;;10.10;75.90;;;;;;5015465;28;20373;-65
2021/05/23 02:34:11;;;;;;;;;;;10.10;75.90;;;;;;5032376;28;19951;-65
2021/05/23 02:36:37;;;;;;;;;;;10.10;75.90;;;;;;5032144;28;19978;-65
2021/05/23 02:39:03;;;;;;;;;;;10.10;75.90;;;;;;5031938;28;20308;-65
2021/05/23 02:41:29;;;;;;;;;;;10.10;75.90;;;;;;5032812;28;19923;-66
2021/05/23 02:43:54;;;;;;;;;;;10.10;75.90;;;;;;5032214;28;19932;-65
2021/05/23 02:46:20;;;;;;;;;;;10.10;75.70;;;;;;5032983;28;19968;-65
2021/05/23 02:48:45;;;;;;;;;;;10.00;75.70;;;;;;5032876;28;19953;-65
2021/05/23 02:51:11;;;;;;;;;;;10.00;75.80;;;;;;5031730;28;19924;-65
2021/05/23 02:53:37;;;;;;;;;;;10.00;75.80;;;;;;5032146;28;20278;-65
2021/05/23 02:56:03;;;;;;;;;;;9.90;75.60;;;;;;5033006;28;19946;-65
2021/05/23 02:58:28;;;;;;;;;;;9.80;75.70;;;;;;5033057;28;19973;-66
2021/05/23 03:00:54;;;;;;;;;;;9.80;75.80;;;;;;5032200;28;19920;-65
2021/05/23 03:03:19;;;;;;;;;;;9.80;75.80;;;;;;5031076;28;20423;-65
2021/05/23 03:05:45;;;;;;;;;;;9.70;75.90;;;;;;5031543;28;19957;-65
2021/05/23 03:08:11;;;;;;;;;;;9.60;76.00;;;;;;5031200;28;19918;-65
2021/05/23 03:10:38;;;;;;;;;;;9.60;76.10;;;;;;5032432;28;20271;-65
2021/05/23 03:13:05;;;;;;;;;;;9.50;76.10;;;;;;5030678;28;20630;-65
2021/05/23 03:15:31;;;;;;;;;;;9.40;76.30;;;;;;5032541;28;19972;-65
2021/05/23 03:17:57;;;;;;;;;;;9.40;76.60;;;;;;5031492;28;19921;-65
2021/05/23 03:20:23;;;;;;;;;;;9.30;76.70;;;;;;5032031;28;19924;-65
2021/05/23 03:22:50;;;;;;;;;;;9.30;76.80;;;;;;5032174;28;19921;-65
2021/05/23 03:25:20;;;;;;;;;;;9.20;76.90;;;;;;5031880;28;19967;-65
2021/05/23 03:27:46;;;;;;;;;;;9.20;77.20;;;;;;5032525;28;19927;-65
2021/05/23 03:30:14;;;;;;;;;;;9.20;77.30;;;;;;5032226;28;19917;-65
2021/05/23 03:32:40;;;;;;;;;;;9.20;77.50;;;;;;5031898;28;19921;-65
2021/05/23 03:35:06;;;;;;;;;;;9.20;77.50;;;;;;5031807;28;20011;-65
2021/05/23 03:37:32;;;;;;;;;;;9.20;77.50;;;;;;5032121;28;19943;-65
2021/05/23 03:39:57;;;;;;;;;;;9.20;77.50;;;;;;5031722;28;19913;-65
2021/05/23 03:42:23;;;;;;;;;;;9.20;77.60;;;;;;5030900;28;19921;-66
2021/05/23 03:44:48;;;;;;;;;;;9.20;77.80;;;;;;5029748;28;19952;-65
2021/05/23 03:47:14;;;;;;;;;;;9.20;77.90;;;;;;5031967;28;19953;-65
2021/05/23 03:49:39;;;;;;;;;;;9.20;77.90;;;;;;5030501;28;19921;-69
2021/05/23 03:52:05;;;;;;;;;;;9.20;78.00;;;;;;5030300;28;19921;-65
2021/05/23 03:54:31;;;;;;;;;;;9.20;78.00;;;;;;5030665;28;19931;-65
2021/05/23 03:56:57;;;;;;;;;;;9.20;78.10;;;;;;5030560;28;20012;-65
2021/05/23 03:59:22;;;;;;;;;;;9.20;78.30;;;;;;5030027;28;20372;-65
2021/05/23 04:01:48;;;;;;;;;;;9.20;78.30;;;;;;5030739;28;19917;-65
2021/05/23 04:04:13;;;;;;;;;;;9.30;78.50;;;;;;5030682;28;19925;-65
2021/05/23 04:06:39;;;;;;;;;;;9.30;78.70;;;;;;5031814;28;19924;-65
2021/05/23 04:09:04;;;;;;;;;;;9.30;78.70;;;;;;5031726;28;19940;-65
2021/05/23 04:11:35;;;;;;;;;;;9.50;78.90;;;;;;5031498;28;19929;-65
2021/05/23 04:14:01;;;;;;;;;;;9.60;78.80;;;;;;5030049;28;20004;-65
2021/05/23 04:16:26;;;;;;;;;;;9.70;78.60;;;;;;5031384;28;20409;-64
2021/05/23 04:18:52;;;;;;;;;;;9.70;78.20;;;;;;5031850;28;19917;-65
2021/05/23 04:21:18;;;;;;;;;;;9.70;78.20;;;;;;5030272;28;19948;-65
2021/05/23 04:23:43;;;;;;;;;;;9.80;78.20;;;;;;5030787;28;20401;-65
2021/05/23 04:26:09;;;;;;;;;;;9.70;78.60;;;;;;5031537;28;20369;-65
2021/05/23 04:28:35;;;;;;;;;;;9.80;78.30;;;;;;5031783;28;19932;-65
2021/05/23 04:31:00;;;;;;;;;;;9.90;78.30;;;;;;5029780;28;20340;-65
2021/05/23 04:33:26;;;;;;;;;;;10.10;78.30;;;;;;5031048;28;19921;-65
2021/05/23 04:35:51;;;;;;;;;;;10.20;78.20;;;;;;5031270;28;20366;-65
2021/05/23 04:38:17;;;;;;;;;;;10.20;77.40;;;;;;5029988;28;19940;-67
2021/05/23 04:40:43;;;;;;;;;;;10.30;77.20;;;;;;5031390;28;19944;-65
2021/05/23 04:43:08;;;;;;;;;;;10.30;77.20;;;;;;5030539;28;19921;-65
2021/05/23 04:45:35;;;;;;;;;;;10.30;77.20;;;;;;5031558;28;19957;-65
2021/05/23 04:48:01;;;;;;;;;;;10.20;77.00;;;;;;5029962;28;20344;-66
2021/05/23 04:50:26;;;;;;;;;;;10.20;76.70;;;;;;5030954;28;19921;-65
2021/05/23 04:52:52;;;;;;;;;;;10.20;76.80;;;;;;5030725;28;19936;-65
2021/05/23 04:55:18;;;;;;;;;;;10.10;76.70;;;;;;5030750;28;20252;-65
2021/05/23 04:57:43;;;;;;;;;;;10.10;76.60;;;;;;5031135;28;19929;-65
2021/05/23 05:00:10;;;;;;;;;;;10.10;76.70;;;;;;5031122;28;19971;-65
2021/05/23 05:02:36;;;;;;;;;;;10.10;77.20;;;;;;5030861;28;19917;-65
2021/05/23 05:05:03;;;;;;;;;;;10.30;77.20;;;;;;5030586;28;20374;-65
2021/05/23 05:07:29;;;;;;;;;;;10.60;77.10;;;;;;5034130;28;19917;-65
2021/05/23 05:09:55;;;;;;;;;;;10.80;76.70;;;;;;5034788;28;19940;-65
2021/05/23 05:12:20;;;;;;;;;;;10.90;76.30;;;;;;5034962;28;19921;-65
2021/05/23 05:14:46;;;;;;;;;;;11.10;75.40;;;;;;5033795;28;19921;-65
2021/05/23 05:17:11;;;;;;;;;;;11.20;75.70;;;;;;5034764;28;19952;-65
2021/05/23 05:19:37;;;;;;;;;;;11.40;75.50;;;;;;5034732;28;20293;-65
2021/05/23 05:22:03;;;;;;;;;;;11.40;74.50;;;;;;5034310;28;20358;-65
2021/05/23 05:24:28;;;;;;;;;;;11.40;74.30;;;;;;5034256;28;19917;-65
2021/05/23 05:26:54;;;;;;;;;;;11.50;75.00;;;;;;5034236;28;20000;-65
2021/05/23 05:29:21;;;;;;;;;;;11.50;73.90;;;;;;5034479;28;19924;-65
2021/05/23 05:31:47;;;;;;;;;;;11.60;73.80;;;;;;5034566;28;19921;-65
2021/05/23 05:34:12;;;;;;;;;;;11.60;73.40;;;;;;5033661;28;20027;-65
2021/05/23 05:36:38;;;;;;;;;;;11.50;73.30;;;;;;5034521;28;19921;-65
2021/05/23 05:39:05;;;;;;;;;;;11.60;73.30;;;;;;5034247;28;19921;-65
2021/05/23 05:41:31;;;;;;;;;;;11.60;73.00;;;;;;5034043;28;20003;-65
2021/05/23 05:43:56;;;;;;;;;;;11.70;73.70;;;;;;5033680;28;20025;-65
2021/05/23 05:46:22;;;;;;;;;;;12.00;74.30;;;;;;5016133;28;19917;-65
2021/05/23 05:48:47;;;;;;;;;;;13.00;78.20;;;;;;5034346;28;19917;-66
2021/05/23 05:51:13;;;;;;;;;;;13.90;74.70;;;;;;5034167;28;19921;-65
2021/05/23 05:53:38;;;;;;;;;;;13.90;69.60;;;;;;5033224;28;20021;-65
2021/05/23 05:56:04;;;;;;;;;;;13.60;68.40;;;;;;5033938;28;19917;-65
2021/05/23 05:58:30;;;;;;;;;;;13.30;68.30;;;;;;5032335;28;19921;-65
2021/05/23 06:00:55;;;;;;;;;;;13.60;71.30;;;;;;5034071;28;19918;-65
2021/05/23 06:03:21;;;;;;;;;;;14.60;74.30;;;;;;5033312;28;20369;-66
2021/05/23 06:05:46;;;;;;;;;;;16.20;77.10;;;;;;5033562;28;19917;-66
2021/05/23 06:08:12;;;;;;;;;;;17.80;73.40;;;;;;5033925;28;20021;-66
2021/05/23 06:10:39;;;;;;;;;;;18.40;68.10;;;;;;5032196;28;19929;-66
2021/05/23 06:13:05;;;;;;;;;;;18.40;61.60;;;;;;5031380;28;19921;-67
2021/05/23 06:15:32;;;;;;;;;;;18.50;63.20;;;;;;5033596;28;19924;-66
2021/05/23 06:17:58;;;;;;;;;;;19.10;62.70;;;;;;5032268;28;19921;-66
2021/05/23 06:20:23;;;;;;;;;;;20.10;63.00;;;;;;5033346;28;19964;-67
2021/05/23 06:22:49;;;;;;;;;;;20.50;57.40;;;;;;5033246;28;19921;-66
2021/05/23 06:25:14;;;;;;;;;;;19.60;53.10;;;;;;5032898;28;19917;-67
2021/05/23 06:27:40;;;;;;;;;;;19.30;56.60;;;;;;5032212;28;19935;-67
2021/05/23 06:30:06;;;;;;;;;;;20.20;59.90;;;;;;5033281;28;19917;-67
2021/05/23 06:32:31;;;;;;;;;;;21.80;59.20;;;;;;5032658;28;19966;-67
2021/05/23 06:34:57;;;;;;;;;;;23.00;55.40;;;;;;5032604;28;20004;-67
2021/05/23 06:37:23;;;;;;;;;;;23.20;51.80;;;;;;5032841;28;20010;-67
2021/05/23 06:39:48;;;;;;;;;;;23.00;50.00;;;;;;5031684;28;19921;-67
2021/05/23 06:42:14;;;;;;;;;;;22.10;46.70;;;;;;5033153;28;19928;-67
2021/05/23 06:44:39;;;;;;;;;;;21.00;45.70;;;;;;5030996;28;19927;-68
2021/05/23 06:47:05;;;;;;;;;;;21.00;50.20;;;;;;5033030;28;19996;-67
2021/05/23 06:49:31;;;;;;;;;;;22.30;50.90;;;;;;5031383;28;20003;-67
2021/05/23 06:51:56;;;;;;;;;;;23.70;49.20;;;;;;5033005;28;19918;-67
2021/05/23 06:54:22;;;;;;;;;;;23.90;44.10;;;;;;5030620;28;19917;-67
2021/05/23 06:56:47;;;;;;;;;;;22.70;41.40;;;;;;5032211;28;19964;-67
2021/05/23 06:59:13;;;;;;;;;;;21.50;42.30;;;;;;5032759;28;19921;-66
2021/05/23 07:01:38;;;;;;;;;;;20.80;43.60;;;;;;5032661;28;19917;-67
2021/05/23 07:04:04;;;;;;;;;;;20.50;44.70;;;;;;5031987;28;20037;-67
2021/05/23 07:06:29;;;;;;;;;;;21.00;45.20;;;;;;5032625;28;20473;-66
2021/05/23 07:08:55;;;;;;;;;;;20.80;42.80;;;;;;5032223;28;19917;-67
2021/05/23 07:11:21;;;;;;;;;;;20.20;42.80;;;;;;5032381;28;20320;-67
2021/05/23 07:13:46;;;;;;;;;;;19.40;42.70;;;;;;5031949;28;19932;-66
2021/05/23 07:16:12;;;;;;;;;;;18.80;43.10;;;;;;5032073;28;20370;-67
2021/05/23 07:18:37;;;;;;;;;;;18.60;45.80;;;;;;5032198;28;19971;-66
2021/05/23 07:21:03;;;;;;;;;;;18.80;45.30;;;;;;5031063;28;19921;-66
2021/05/23 07:23:28;;;;;;;;;;;19.20;45.30;;;;;;5031218;28;19924;-66
2021/05/23 07:25:54;;;;;;;;;;;18.80;43.90;;;;;;5032384;28;19918;-67
2021/05/23 07:28:20;;;;;;;;;;;18.20;43.90;;;;;;5031811;28;19940;-67
2021/05/23 07:30:45;;;;;;;;;;;18.80;49.30;;;;;;5032068;28;20368;-66
2021/05/23 07:33:14;;;;;;;;;;;18.90;46.10;;;;;;5031696;28;20274;-66
2021/05/23 07:35:40;;;;;;;;;;;18.40;43.90;;;;;;5031833;28;20021;-66
2021/05/23 07:38:05;;;;;;;;;;;17.60;44.20;;;;;;5031863;28;19956;-66
2021/05/23 07:40:31;;;;;;;;;;;18.30;49.10;;;;;;5031908;28;19924;-67
2021/05/23 07:42:56;;;;;;;;;;;19.00;48.00;;;;;;5031385;28;20377;-68
2021/05/23 07:45:22;;;;;;;;;;;21.20;51.90;;;;;;5031956;28;19932;-68
2021/05/23 07:47:48;;;;;;;;;;;23.80;50.20;;;;;;5031586;28;20316;-68
2021/05/23 07:50:13;;;;;;;;;;;26.30;46.20;;;;;;5030458;28;19924;-68
2021/05/23 07:52:39;;;;;;;;;;;28.10;43.40;;;;;;5031641;28;19968;-69
2021/05/23 07:55:05;;;;;;;;;;;29.60;39.50;;;;;;5030865;28;19917;-68
2021/05/23 07:57:31;;;;;;;;;;;29.30;35.20;;;;;;5031990;28;20297;-68
2021/05/23 07:59:58;;;;;;;;;;;28.70;34.60;;;;;;5030601;28;21273;-68
2021/05/23 08:02:23;;;;;;;;;;;28.60;34.40;;;;;;5031729;28;19943;-69
2021/05/23 08:04:49;;;;;;;;;;;28.80;34.70;;;;;;5031286;28;20043;-68
2021/05/23 08:07:15;;;;;;;;;;;28.40;31.90;;;;;;5031064;28;19917;-67
2021/05/23 08:09:40;;;;;;;;;;;26.80;30.70;;;;;;5031767;28;20143;-67
2021/05/23 08:12:06;;;;;;;;;;;25.50;33.60;;;;;;5031659;28;19979;-68
2021/05/23 08:14:31;;;;;;;;;;;25.00;32.10;;;;;;5030391;28;19917;-67
2021/05/23 08:16:57;;;;;;;;;;;23.20;31.10;;;;;;5031468;28;19932;-67
2021/05/23 08:19:23;;;;;;;;;;;21.50;33.10;;;;;;5030871;28;19944;-66
2021/05/23 08:21:49;;;;;;;;;;;20.20;34.20;;;;;;5031442;28;20004;-66
2021/05/23 08:24:14;;;;;;;;;;;19.40;36.20;;;;;;5030765;28;19940;-67
2021/05/23 08:26:40;;;;;;;;;;;18.90;37.00;;;;;;5029685;28;20013;-68
2021/05/23 08:29:06;;;;;;;;;;;18.50;37.80;;;;;;5031394;28;19941;-67
2021/05/23 08:31:32;;;;;;;;;;;19.70;42.30;;;;;;5031024;28;19917;-66
2021/05/23 08:33:57;;;;;;;;;;;21.10;39.10;;;;;;5030649;28;20374;-66
2021/05/23 08:36:23;;;;;;;;;;;20.70;36.00;;;;;;5031216;28;19935;-67
2021/05/23 08:38:48;;;;;;;;;;;19.70;36.00;;;;;;5030868;28;20000;-67
2021/05/23 08:41:15;;;;;;;;;;;19.10;37.60;;;;;;5032934;28;20215;-66
2021/05/23 08:43:40;;;;;;;;;;;19.10;38.30;;;;;;5034718;28;19940;-66
2021/05/23 08:46:06;;;;;;;;;;;19.50;38.80;;;;;;5034912;28;19952;-67
2021/05/23 08:48:33;;;;;;;;;;;19.20;37.40;;;;;;5035298;28;19914;-66
2021/05/23 08:50:58;;;;;;;;;;;18.60;37.60;;;;;;5034732;28;19917;-67
2021/05/23 08:53:25;;;;;;;;;;;18.30;39.60;;;;;;5034556;28;19917;-66
2021/05/23 08:55:52;;;;;;;;;;;18.40;39.70;;;;;;5035216;28;20378;-66
2021/05/23 08:58:17;;;;;;;;;;;18.20;39.50;;;;;;5034507;28;19921;-66
2021/05/23 09:00:43;;;;;;;;;;;17.90;39.30;;;;;;5034936;28;19936;-66
2021/05/23 09:03:12;;;;;;;;;;;17.70;39.70;;;;;;5033199;28;19917;-66
2021/05/23 09:05:45;;;;;;;;;;;17.70;41.10;;;;;;5034347;28;19924;-67
2021/05/23 09:08:20;;;;;;;;;;;17.70;40.60;;;;;;5034894;28;19921;-67
2021/05/23 09:10:46;;;;;;;;;;;17.60;41.10;;;;;;5034383;28;19921;-66
2021/05/23 09:13:13;;;;;;;;;;;17.50;41.10;;;;;;5034074;28;19921;-66
2021/05/23 09:15:39;;;;;;;;;;;17.10;40.80;;;;;;5034576;28;19913;-67
2021/05/23 09:18:09;;;;;;;;;;;16.80;41.70;;;;;;5034526;28;20012;-66
2021/05/23 09:20:36;;;;;;;;;;;16.90;42.80;;;;;;5032879;28;20378;-66
2021/05/23 09:23:06;;;;;;;;;;;17.00;42.50;;;;;;5033835;28;19979;-66
2021/05/23 09:25:33;;;;;;;;;;;17.40;43.80;;;;;;5034415;28;20332;-68
2021/05/23 09:27:59;;;;;;;;;;;18.00;43.70;;;;;;5032877;28;19917;-66
2021/05/23 09:30:28;;;;;;;;;;;18.60;42.30;;;;;;5034370;28;20289;-66
2021/05/23 09:32:56;;;;;;;;;;;18.90;41.90;;;;;;5033556;28;19921;-66
2021/05/23 09:35:22;;;;;;;;;;;18.80;40.50;;;;;;5034237;28;19925;-67
2021/05/23 09:38:04;;;;;;;;;;;18.30;39.90;;;;;;5034379;28;19921;-66
2021/05/23 09:40:31;;;;;;;;;;;18.00;40.80;;;;;;5033891;28;19917;-66
2021/05/23 09:42:57;;;;;;;;;;;17.80;41.10;;;;;;5033750;28;19917;-67
2021/05/23 09:45:24;;;;;;;;;;;17.50;41.00;;;;;;5033621;28;19924;-66
2021/05/23 09:47:50;;;;;;;;;;;17.90;43.20;;;;;;5034161;28;19917;-68
2021/05/23 09:50:16;;;;;;;;;;;21.30;45.70;;;;;;5032527;28;19959;-67
2021/05/23 09:52:41;;;;;;;;;;;24.50;41.80;;;;;;5032452;28;19921;-68
2021/05/23 09:55:07;;;;;;;;;;;25.90;39.50;;;;;;5033290;28;20429;-67
2021/05/23 09:57:33;;;;;;;;;;;26.40;36.00;;;;;;5033369;28;19921;-68
2021/05/23 10:00:12;;;;;;;;;;;25.40;33.30;;;;;;5032498;28;19913;-67
2021/05/23 10:02:56;;;;;;;;;;;23.70;32.60;;;;;;5033407;28;19932;-67
2021/05/23 10:05:23;;;;;;;;;;;22.00;33.40;;;;;;5032339;28;19917;-66
2021/05/23 10:07:48;;;;;;;;;;;21.20;35.20;;;;;;5032048;28;19917;-68
2021/05/23 10:10:14;;;;;;;;;;;22.20;37.90;;;;;;5032287;28;19944;-67
2021/05/23 10:12:41;;;;;;;;;;;22.50;35.50;;;;;;5033769;28;20370;-67
2021/05/23 10:15:07;;;;;;;;;;;23.80;36.70;;;;;;5032780;28;19918;-68
2021/05/23 10:17:36;;;;;;;;;;;24.90;35.50;;;;;;5032297;28;19917;-68
2021/05/23 10:20:03;;;;;;;;;;;26.00;34.50;;;;;;5032832;28;19917;-68
2021/05/23 10:22:32;;;;;;;;;;;25.30;31.40;;;;;;5033541;28;19959;-67
2021/05/23 10:24:59;;;;;;;;;;;23.90;31.30;;;;;;5032819;28;20370;-67
2021/05/23 10:27:25;;;;;;;;;;;23.20;32.50;;;;;;5032866;28;19917;-67
2021/05/23 10:29:52;;;;;;;;;;;24.50;34.90;;;;;;5033334;28;19917;-68
2021/05/23 10:32:21;;;;;;;;;;;25.30;33.50;;;;;;5032897;28;19917;-68
2021/05/23 10:34:48;;;;;;;;;;;26.50;33.20;;;;;;5032656;28;19924;-67
2021/05/23 10:37:16;;;;;;;;;;;26.60;30.20;;;;;;5033049;28;20393;-68
2021/05/23 10:39:47;;;;;;;;;;;25.00;29.50;;;;;;5031493;28;20316;-68
2021/05/23 10:42:13;;;;;;;;;;;23.40;30.00;;;;;;5031826;28;19924;-67
2021/05/23 10:44:43;;;;;;;;;;;23.60;33.00;;;;;;5032104;28;19913;-68
2021/05/23 10:47:10;;;;;;;;;;;26.80;34.90;;;;;;5033123;28;20366;-69
2021/05/23 10:49:35;;;;;;;;;;;30.20;33.40;;;;;;5032592;28;19917;-68
2021/05/23 10:52:02;;;;;;;;;;;32.50;30.60;;;;;;5033283;28;19917;-69
2021/05/23 10:54:28;;;;;;;;;;;34.00;28.50;;;;;;5032294;28;20004;-70
2021/05/23 10:57:00;;;;;;;;;;;34.80;26.80;;;;;;5032380;28;20060;-69
2021/05/23 10:59:29;;;;;;;;;;;33.70;25.70;;;;;;5032794;28;19924;-68
2021/05/23 11:01:54;;;;;;;;;;;30.60;24.90;;;;;;5032399;28;19967;-68
2021/05/23 11:04:24;;;;;;;;;;;27.80;26.00;;;;;;5031557;28;19952;-69
2021/05/23 11:06:50;;;;;;;;;;;25.60;27.00;;;;;;5031323;28;19988;-69
2021/05/23 11:09:16;;;;;;;;;;;24.70;29.30;;;;;;5032063;28;19913;-69
2021/05/23 11:11:42;;;;;;;;;;;25.30;29.70;;;;;;5032474;28;19928;-68
2021/05/23 11:14:15;;;;;;;;;;;25.50;29.10;;;;;;5031534;28;19929;-68
2021/05/23 11:16:50;;;;;;;;;;;26.00;29.00;;;;;;5032241;28;19925;-69
2021/05/23 11:19:16;;;;;;;;;;;27.60;29.70;;;;;;5030758;28;19923;-70
2021/05/23 11:21:43;;;;;;;;;;;30.40;29.90;;;;;;5032337;28;19917;-69
2021/05/23 11:24:09;;;;;;;;;;;32.00;28.60;;;;;;5031837;28;20008;-70
2021/05/23 11:26:35;;;;;;;;;;;33.10;27.50;;;;;;5031920;28;19917;-69
2021/05/23 11:29:02;;;;;;;;;;;32.70;25.40;;;;;;5032224;28;19953;-69
2021/05/23 11:31:30;;;;;;;;;;;30.40;25.10;;;;;;5031716;28;19963;-69
2021/05/23 11:33:56;;;;;;;;;;;27.90;25.60;;;;;;5031496;28;19953;-69
2021/05/23 11:36:22;;;;;;;;;;;27.90;27.70;;;;;;5030851;28;20404;-69
2021/05/23 11:38:48;;;;;;;;;;;29.00;27.20;;;;;;5031746;28;19927;-69
2021/05/23 11:41:24;;;;;;;;;;;28.20;25.50;;;;;;5031777;28;20319;-69
2021/05/23 11:43:52;;;;;;;;;;;26.60;25.90;;;;;;5029454;28;20329;-68
2021/05/23 11:46:21;;;;;;;;;;;25.40;27.00;;;;;;5030574;28;19921;-68
2021/05/23 11:48:46;;;;;;;;;;;25.00;28.00;;;;;;5031660;28;19917;-67
2021/05/23 11:51:12;;;;;;;;;;;24.30;27.70;;;;;;5030191;28;19917;-68
2021/05/23 11:53:39;;;;;;;;;;;23.20;28.10;;;;;;5031209;28;20370;-67
2021/05/23 11:56:05;;;;;;;;;;;22.40;28.80;;;;;;5031269;28;20016;-67
2021/05/23 11:58:31;;;;;;;;;;;21.60;29.60;;;;;;5031554;28;19964;-67
2021/05/23 12:01:31;;;;;;;;;;;21.00;30.20;;;;;;5031722;28;19921;-67
2021/05/23 12:03:57;;;;;;;;;;;20.60;31.10;;;;;;5007993;28;19931;-67
2021/05/23 12:06:23;;;;;;;;;;;20.30;31.80;;;;;;5031708;28;19917;-67
2021/05/23 12:08:48;;;;;;;;;;;20.00;32.00;;;;;;5029650;28;20407;-67
2021/05/23 12:11:14;;;;;;;;;;;19.70;33.00;;;;;;5031405;28;19921;-67
2021/05/23 12:13:44;;;;;;;;;;;19.80;33.70;;;;;;5030870;28;19924;-67
2021/05/23 12:16:10;;;;;;;;;;;20.10;33.80;;;;;;5030018;28;19996;-68
2021/05/23 12:18:40;;;;;;;;;;;20.30;33.60;;;;;;5031370;28;20008;-67
2021/05/23 12:21:06;;;;;;;;;;;20.50;33.70;;;;;;5030989;28;20338;-67
2021/05/23 12:23:33;;;;;;;;;;;21.00;33.80;;;;;;5030666;28;19913;-67
2021/05/23 12:25:58;;;;;;;;;;;21.10;33.10;;;;;;5031519;28;19918;-67
2021/05/23 12:28:37;;;;;;;;;;;21.10;33.20;;;;;;5031110;28;19936;-66
2021/05/23 12:31:05;;;;;;;;;;;21.00;33.30;;;;;;5031165;28;19935;-67
2021/05/23 12:33:31;;;;;;;;;;;21.00;33.90;;;;;;5030394;28;19974;-67
2021/05/23 12:36:04;;;;;;;;;;;20.80;33.00;;;;;;5031391;28;20440;-67
2021/05/23 12:38:29;;;;;;;;;;;20.50;33.40;;;;;;5030887;28;20407;-67
2021/05/23 12:40:56;;;;;;;;;;;20.60;34.20;;;;;;5029951;28;20004;-66
2021/05/23 12:43:23;;;;;;;;;;;20.60;34.00;;;;;;5030573;28;19953;-67
2021/05/23 12:46:03;;;;;;;;;;;20.40;33.70;;;;;;5030802;28;19917;-67
2021/05/23 12:48:45;;;;;;;;;;;20.10;34.20;;;;;;5030970;28;20004;-67
2021/05/23 12:51:18;;;;;;;;;;;20.00;34.60;;;;;;5030982;28;19921;-66
2021/05/23 12:53:48;;;;;;;;;;;19.90;35.10;;;;;;5029124;28;19924;-67
2021/05/23 12:56:24;;;;;;;;;;;20.10;35.60;;;;;;5030848;28;20004;-67
2021/05/23 12:58:51;;;;;;;;;;;20.40;35.20;;;;;;5029696;28;20398;-67
2021/05/23 13:01:24;;;;;;;;;;;20.50;34.90;;;;;;5030564;28;20415;-66
2021/05/23 13:03:54;;;;;;;;;;;20.20;34.60;;;;;;5030263;28;19924;-67
2021/05/23 13:06:20;;;;;;;;;;;19.90;34.90;;;;;;5030512;28;20321;-67
2021/05/23 13:08:54;;;;;;;;;;;19.60;35.10;;;;;;5031099;28;19917;-67
2021/05/23 13:11:20;;;;;;;;;;;19.40;35.50;;;;;;5030221;28;19921;-67
2021/05/23 13:13:46;;;;;;;;;;;19.20;36.00;;;;;;5030462;28;20339;-66
2021/05/23 13:16:12;;;;;;;;;;;18.90;36.10;;;;;;5030810;28;19923;-66
2021/05/23 13:18:42;;;;;;;;;;;18.60;36.70;;;;;;5030390;28;20328;-67
2021/05/23 13:21:08;;;;;;;;;;;18.30;37.00;;;;;;5031024;28;19924;-66
2021/05/23 13:23:34;;;;;;;;;;;18.00;37.70;;;;;;5028478;28;20008;-67
2021/05/23 13:25:59;;;;;;;;;;;17.90;38.30;;;;;;5030495;28;19999;-67
2021/05/23 13:28:25;;;;;;;;;;;17.90;38.70;;;;;;5034207;28;19924;-66
2021/05/23 13:30:50;;;;;;;;;;;17.80;39.10;;;;;;5033894;28;19917;-67
2021/05/23 13:33:17;;;;;;;;;;;17.80;39.00;;;;;;5033762;28;19917;-66
2021/05/23 13:35:42;;;;;;;;;;;17.60;39.10;;;;;;5034057;28;19940;-67
2021/05/23 13:38:08;;;;;;;;;;;17.40;39.60;;;;;;5034182;28;20373;-66
2021/05/23 13:40:33;;;;;;;;;;;17.30;40.20;;;;;;5033646;28;19921;-66
2021/05/23 13:42:59;;;;;;;;;;;17.30;40.60;;;;;;5033238;28;19925;-67
2021/05/23 13:45:24;;;;;;;;;;;17.30;41.10;;;;;;5034225;28;19917;-66
2021/05/23 13:47:50;;;;;;;;;;;17.40;41.30;;;;;;5034210;28;20004;-66
2021/05/23 13:50:16;;;;;;;;;;;17.50;41.10;;;;;;5033800;28;20366;-67
2021/05/23 13:52:41;;;;;;;;;;;17.40;40.80;;;;;;5032553;28;19917;-66
2021/05/23 13:55:07;;;;;;;;;;;17.30;41.10;;;;;;5032901;28;19960;-66
2021/05/23 13:57:33;;;;;;;;;;;17.10;41.30;;;;;;5033990;28;19928;-66
2021/05/23 13:59:58;;;;;;;;;;;16.90;41.60;;;;;;5032630;28;19917;-66
2021/05/23 14:02:24;;;;;;;;;;;16.70;42.00;;;;;;5033445;28;19921;-66
2021/05/23 14:04:50;;;;;;;;;;;16.60;42.40;;;;;;5033239;28;19952;-66
2021/05/23 14:07:16;;;;;;;;;;;16.40;43.00;;;;;;5033825;28;19932;-66
2021/05/23 14:09:42;;;;;;;;;;;16.20;43.70;;;;;;5033267;28;20016;-66
2021/05/23 14:12:08;;;;;;;;;;;16.10;44.30;;;;;;5033907;28;19921;-66
2021/05/23 14:14:34;;;;;;;;;;;16.10;44.60;;;;;;5032838;28;19929;-66
2021/05/23 14:17:01;;;;;;;;;;;16.10;44.60;;;;;;5033262;28;19980;-66